createdAt,value
2018-07-16T00:01:46.548Z,25.00
2018-07-16T00:04:13.374Z,25.00
2018-07-16T00:06:40.186Z,25.00
2018-07-16T00:09:07.015Z,25.00
2018-07-16T00:11:34.037Z,25.00
2018-07-16T00:14:00.866Z,25.00
2018-07-16T00:16:27.698Z,25.00
2018-07-16T00:18:54.523Z,25.00
2018-07-16T00:21:21.398Z,25.00
2018-07-16T00:23:48.251Z,25.00
2018-07-16T00:26:15.074Z,25.00
2018-07-16T00:28:41.902Z,25.00
2018-07-16T00:31:08.776Z,25.00
2018-07-16T00:33:35.599Z,25.00
2018-07-16T00:36:02.430Z,25.00
2018-07-16T00:38:29.250Z,25.00
2018-07-16T00:40:56.241Z,25.00
2018-07-16T00:43:23.073Z,25.00
2018-07-16T00:45:49.907Z,25.00
2018-07-16T00:48:16.757Z,25.00
2018-07-16T00:50:43.821Z,25.00
2018-07-16T00:53:10.784Z,25.00
2018-07-16T00:55:37.614Z,25.00
2018-07-16T00:58:04.435Z,25.00
2018-07-16T01:00:31.296Z,25.00
2018-07-16T01:02:58.130Z,25.00
2018-07-16T01:05:24.958Z,25.00
2018-07-16T01:07:51.776Z,25.00
2018-07-16T01:10:18.678Z,25.00
2018-07-16T01:12:45.516Z,25.00
2018-07-16T01:15:12.354Z,24.90
2018-07-16T01:17:39.178Z,25.00
2018-07-16T01:20:06.037Z,25.00
2018-07-16T01:22:32.881Z,25.00
2018-07-16T01:24:59.717Z,24.90
2018-07-16T01:27:26.532Z,25.00
2018-07-16T01:29:53.421Z,24.90
2018-07-16T01:32:20.253Z,24.90
2018-07-16T01:34:47.073Z,24.90
2018-07-16T01:37:13.910Z,24.90
2018-07-16T01:39:40.741Z,24.90
2018-07-16T01:42:07.576Z,24.90
2018-07-16T01:44:34.387Z,24.90
2018-07-16T01:47:01.212Z,24.90
2018-07-16T01:49:28.092Z,24.90
2018-07-16T01:51:54.908Z,24.90
2018-07-16T01:54:21.732Z,24.90
2018-07-16T01:56:48.584Z,24.90
2018-07-16T01:59:15.399Z,24.90
2018-07-16T02:01:42.390Z,24.90
2018-07-16T02:04:09.224Z,24.90
2018-07-16T02:06:36.055Z,24.90
2018-07-16T02:09:02.878Z,24.90
2018-07-16T02:11:29.750Z,24.90
2018-07-16T02:13:56.576Z,24.90
2018-07-16T02:16:23.401Z,24.90
2018-07-16T02:18:50.229Z,24.90
2018-07-16T02:21:17.120Z,24.90
2018-07-16T02:23:43.952Z,24.90
2018-07-16T02:26:10.769Z,24.90
2018-07-16T02:28:37.597Z,24.90
2018-07-16T02:31:04.486Z,24.90
2018-07-16T02:33:31.316Z,24.90
2018-07-16T02:35:58.143Z,24.90
2018-07-16T02:38:24.963Z,24.90
2018-07-16T02:40:51.870Z,24.90
2018-07-16T02:43:18.685Z,24.90
2018-07-16T02:45:45.513Z,24.90
2018-07-16T02:48:12.366Z,24.90
2018-07-16T02:50:39.252Z,24.90
2018-07-16T02:53:06.083Z,24.90
2018-07-16T02:55:32.904Z,24.90
2018-07-16T02:57:59.725Z,24.90
2018-07-16T03:00:26.591Z,24.80
2018-07-16T03:02:53.431Z,24.80
2018-07-16T03:05:20.242Z,24.80
2018-07-16T03:07:47.071Z,24.80
2018-07-16T03:10:13.978Z,24.80
2018-07-16T03:12:40.814Z,24.80
2018-07-16T03:15:07.642Z,24.80
2018-07-16T03:17:34.488Z,24.80
2018-07-16T03:20:01.410Z,24.80
2018-07-16T03:22:28.238Z,24.80
2018-07-16T03:24:55.046Z,24.80
2018-07-16T03:27:21.874Z,24.80
2018-07-16T03:29:48.719Z,24.80
2018-07-16T03:32:15.944Z,24.80
2018-07-16T03:34:42.762Z,24.90
2018-07-16T03:37:09.582Z,24.90
2018-07-16T03:39:36.399Z,24.90
2018-07-16T03:42:03.226Z,24.90
2018-07-16T03:44:30.045Z,24.90
2018-07-16T03:46:56.878Z,25.00
2018-07-16T03:49:23.882Z,25.00
2018-07-16T03:51:50.700Z,25.00
2018-07-16T03:54:17.556Z,25.00
2018-07-16T03:56:44.350Z,25.10
2018-07-16T03:59:11.188Z,24.90
2018-07-16T04:01:38.116Z,24.80
2018-07-16T04:04:04.946Z,24.60
2018-07-16T04:06:31.775Z,24.40
2018-07-16T04:08:58.600Z,24.20
2018-07-16T04:11:25.458Z,24.30
2018-07-16T04:13:52.301Z,24.30
2018-07-16T04:16:19.129Z,24.10
2018-07-16T04:18:45.963Z,23.90
2018-07-16T04:21:12.916Z,24.00
2018-07-16T04:23:39.761Z,24.10
2018-07-16T04:26:06.583Z,24.10
2018-07-16T04:28:33.402Z,24.10
2018-07-16T04:31:00.479Z,24.10
2018-07-16T04:33:27.223Z,24.00
2018-07-16T04:35:54.043Z,23.80
2018-07-16T04:38:20.864Z,23.80
2018-07-16T04:40:47.775Z,23.80
2018-07-16T04:43:14.607Z,23.80
2018-07-16T04:45:41.421Z,23.80
2018-07-16T04:48:08.261Z,23.80
2018-07-16T04:50:35.140Z,23.90
2018-07-16T04:53:01.996Z,23.80
2018-07-16T04:55:28.817Z,23.90
2018-07-16T04:57:55.653Z,23.90
2018-07-16T05:00:22.522Z,23.90
2018-07-16T05:02:49.351Z,23.80
2018-07-16T05:05:16.198Z,23.80
2018-07-16T05:07:43.027Z,23.80
2018-07-16T05:10:09.893Z,23.80
2018-07-16T05:12:36.722Z,23.80
2018-07-16T05:15:03.557Z,23.90
2018-07-16T05:17:30.407Z,24.00
2018-07-16T05:19:57.273Z,24.20
2018-07-16T05:22:24.097Z,24.10
2018-07-16T05:24:50.930Z,24.10
2018-07-16T05:27:17.767Z,24.00
2018-07-16T05:29:44.628Z,24.00
2018-07-16T05:32:11.831Z,24.10
2018-07-16T05:34:38.614Z,24.00
2018-07-16T05:37:05.464Z,23.90
2018-07-16T05:39:32.346Z,23.90
2018-07-16T05:41:59.157Z,24.00
2018-07-16T05:44:26.006Z,24.00
2018-07-16T05:46:52.833Z,24.00
2018-07-16T05:49:19.704Z,24.00
2018-07-16T05:56:40.811Z,24.00
2018-07-16T05:59:08.503Z,24.00
2018-07-16T06:01:35.453Z,24.00
2018-07-16T06:04:02.287Z,24.00
2018-07-16T06:06:29.157Z,24.00
2018-07-16T06:08:55.985Z,24.00
2018-07-16T06:11:23.007Z,24.00
2018-07-16T06:13:49.834Z,24.00
2018-07-16T06:16:16.666Z,24.00
2018-07-16T06:18:43.490Z,24.10
2018-07-16T06:21:10.414Z,24.10
2018-07-16T06:23:37.230Z,24.20
2018-07-16T06:26:04.056Z,24.20
2018-07-16T06:28:30.877Z,24.20
2018-07-16T06:30:57.768Z,24.20
2018-07-16T06:33:24.672Z,24.20
2018-07-16T06:35:51.558Z,24.20
2018-07-16T06:40:46.540Z,24.30
2018-07-16T06:43:13.848Z,24.30
2018-07-16T06:45:40.837Z,24.30
2018-07-16T06:48:07.658Z,24.20
2018-07-16T06:50:34.555Z,24.20
2018-07-16T06:53:01.378Z,24.30
2018-07-16T06:55:28.289Z,24.30
2018-07-16T06:57:55.262Z,24.30
2018-07-16T07:00:22.115Z,24.30
2018-07-16T07:02:48.961Z,24.30
2018-07-16T07:05:16.545Z,24.30
2018-07-16T07:07:43.472Z,24.30
2018-07-16T07:10:10.410Z,24.30
2018-07-16T07:12:37.365Z,24.30
2018-07-16T07:15:04.190Z,24.30
2018-07-16T07:17:31.037Z,24.20
2018-07-16T07:19:57.910Z,24.30
2018-07-16T07:22:24.728Z,24.30
2018-07-16T07:24:51.598Z,24.30
2018-07-16T07:27:18.431Z,24.30
2018-07-16T07:29:45.268Z,24.30
2018-07-16T07:32:12.994Z,24.30
2018-07-16T07:34:39.932Z,24.30
2018-07-16T07:37:07.497Z,24.30
2018-07-16T07:39:34.556Z,24.30
2018-07-16T07:42:01.737Z,24.30
2018-07-16T07:44:28.778Z,24.30
2018-07-16T07:46:55.600Z,24.40
2018-07-16T07:49:22.429Z,24.40
2018-07-16T07:51:49.257Z,24.40
2018-07-16T07:54:16.155Z,24.40
2018-07-16T07:56:42.910Z,24.40
2018-07-16T07:59:09.768Z,24.40
2018-07-16T08:01:36.683Z,24.40
2018-07-16T08:04:03.507Z,24.50
2018-07-16T08:06:30.342Z,24.60
2018-07-16T08:08:57.173Z,24.60
2018-07-16T08:11:24.038Z,24.70
2018-07-16T08:13:50.970Z,24.70
2018-07-16T08:16:17.745Z,24.60
2018-07-16T08:18:44.634Z,24.50
2018-07-16T08:21:11.873Z,24.30
2018-07-16T08:23:38.692Z,24.20
2018-07-16T08:26:05.505Z,24.40
2018-07-16T08:28:32.351Z,24.40
2018-07-16T08:30:59.204Z,24.50
2018-07-16T08:33:26.030Z,24.50
2018-07-16T08:35:52.985Z,24.40
2018-07-16T08:38:19.818Z,24.40
2018-07-16T08:40:46.779Z,24.50
2018-07-16T08:43:13.631Z,24.60
2018-07-16T08:45:41.081Z,24.60
2018-07-16T08:48:07.908Z,24.60
2018-07-16T08:50:34.758Z,24.60
2018-07-16T08:53:01.597Z,24.70
2018-07-16T08:55:28.430Z,24.70
2018-07-16T08:57:55.257Z,24.80
2018-07-16T09:00:22.125Z,24.80
2018-07-16T09:02:48.952Z,24.80
2018-07-16T09:05:15.853Z,24.80
2018-07-16T09:07:42.656Z,24.90
2018-07-16T09:10:09.511Z,24.90
2018-07-16T09:12:36.361Z,24.80
2018-07-16T09:15:03.344Z,24.90
2018-07-16T09:17:30.198Z,24.90
2018-07-16T09:19:57.213Z,24.90
2018-07-16T09:22:24.063Z,25.00
2018-07-16T09:24:51.012Z,25.00
2018-07-16T09:27:17.888Z,25.00
2018-07-16T09:29:44.949Z,25.00
2018-07-16T09:32:12.207Z,25.10
2018-07-16T09:34:39.169Z,25.10
2018-07-16T09:37:06.036Z,25.10
2018-07-16T09:39:32.914Z,25.00
2018-07-16T09:41:59.802Z,24.80
2018-07-16T09:44:26.680Z,24.80
2018-07-16T09:46:54.641Z,24.80
2018-07-16T09:49:21.530Z,24.90
2018-07-16T09:51:48.410Z,24.90
2018-07-16T09:54:15.313Z,24.80
2018-07-16T09:56:42.178Z,24.70
2018-07-16T09:59:09.076Z,24.70
2018-07-16T10:01:36.165Z,24.80
2018-07-16T10:04:03.060Z,24.90
2018-07-16T10:06:30.027Z,24.90
2018-07-16T10:08:56.857Z,25.00
2018-07-16T10:11:23.908Z,25.10
2018-07-16T10:13:50.899Z,25.20
2018-07-16T10:16:17.820Z,25.10
2018-07-16T10:18:44.693Z,25.10
2018-07-16T10:21:11.783Z,25.10
2018-07-16T10:23:38.682Z,25.20
2018-07-16T10:26:05.557Z,25.00
2018-07-16T10:28:32.447Z,25.00
2018-07-16T10:30:59.525Z,25.10
2018-07-16T10:33:26.445Z,25.10
2018-07-16T10:35:53.354Z,25.10
2018-07-16T10:38:20.237Z,25.00
2018-07-16T10:40:47.260Z,24.90
2018-07-16T10:43:14.084Z,24.90
2018-07-16T10:45:40.947Z,24.90
2018-07-16T10:48:07.883Z,24.80
2018-07-16T10:50:34.812Z,24.90
2018-07-16T10:53:01.727Z,24.90
2018-07-16T10:55:28.571Z,25.00
2018-07-16T10:57:55.408Z,25.10
2018-07-16T11:00:22.353Z,25.20
2018-07-16T11:02:49.177Z,25.20
2018-07-16T11:05:16.034Z,25.20
2018-07-16T11:07:42.866Z,25.10
2018-07-16T11:10:09.931Z,25.10
2018-07-16T11:12:36.754Z,25.10
2018-07-16T11:15:03.626Z,25.10
2018-07-16T11:17:30.406Z,25.10
2018-07-16T11:19:57.297Z,25.10
2018-07-16T11:22:24.131Z,25.10
2018-07-16T11:24:50.990Z,25.10
2018-07-16T11:27:17.802Z,25.10
2018-07-16T11:29:44.672Z,25.10
2018-07-16T11:32:11.518Z,25.10
2018-07-16T11:34:38.334Z,25.10
2018-07-16T11:37:05.232Z,25.00
2018-07-16T11:39:32.047Z,25.00
2018-07-16T11:41:58.863Z,25.00
2018-07-16T11:44:25.696Z,25.10
2018-07-16T11:46:52.542Z,25.10
2018-07-16T11:49:19.405Z,25.20
2018-07-16T11:51:46.253Z,25.30
2018-07-16T11:54:13.120Z,25.30
2018-07-16T11:56:39.933Z,25.30
2018-07-16T11:59:06.751Z,25.40
2018-07-16T12:01:33.638Z,25.40
2018-07-16T12:04:00.490Z,25.40
2018-07-16T12:06:27.311Z,25.50
2018-07-16T12:08:54.143Z,25.50
2018-07-16T12:11:21.055Z,25.50
2018-07-16T12:13:47.864Z,25.50
2018-07-16T12:16:14.691Z,25.50
2018-07-16T12:18:41.540Z,25.50
2018-07-16T12:21:08.572Z,25.50
2018-07-16T12:23:35.384Z,25.60
2018-07-16T12:26:02.259Z,25.60
2018-07-16T12:28:29.031Z,25.40
2018-07-16T12:30:55.940Z,25.40
2018-07-16T12:33:22.768Z,25.40
2018-07-16T12:35:49.622Z,25.50
2018-07-16T12:38:16.440Z,25.50
2018-07-16T12:40:43.321Z,25.50
2018-07-16T12:43:10.160Z,25.50
2018-07-16T12:45:36.983Z,25.50
2018-07-16T12:48:03.851Z,25.40
2018-07-16T12:50:30.690Z,25.50
2018-07-16T12:52:57.506Z,25.50
2018-07-16T12:55:24.393Z,25.60
2018-07-16T12:57:51.157Z,25.60
2018-07-16T13:00:18.064Z,25.70
2018-07-16T13:02:44.889Z,25.60
2018-07-16T13:05:11.723Z,25.60
2018-07-16T13:07:38.541Z,25.50
2018-07-16T13:10:05.518Z,25.50
2018-07-16T13:12:32.375Z,25.50
2018-07-16T13:14:59.203Z,25.50
2018-07-16T13:17:26.601Z,25.50
2018-07-16T13:19:53.618Z,25.50
2018-07-16T13:22:20.443Z,25.50
2018-07-16T13:24:47.270Z,25.60
2018-07-16T13:27:14.097Z,25.50
2018-07-16T13:29:41.034Z,25.50
2018-07-16T13:32:07.815Z,25.50
2018-07-16T13:34:34.640Z,25.50
2018-07-16T13:37:01.531Z,25.50
2018-07-16T13:39:28.276Z,25.60
2018-07-16T13:41:55.101Z,25.60
2018-07-16T13:44:21.940Z,25.60
2018-07-16T13:46:48.959Z,25.60
2018-07-16T13:49:15.783Z,25.60
2018-07-16T13:51:42.603Z,25.60
2018-07-16T13:54:09.609Z,25.60
2018-07-16T13:56:36.412Z,25.60
2018-07-16T13:59:03.231Z,25.60
2018-07-16T14:01:30.199Z,25.60
2018-07-16T14:03:57.012Z,25.60
2018-07-16T14:06:23.861Z,25.60
2018-07-16T14:08:51.108Z,25.60
2018-07-16T14:11:17.976Z,25.60
2018-07-16T14:13:44.775Z,25.50
2018-07-16T14:16:12.301Z,25.50
2018-07-16T14:18:39.131Z,25.50
2018-07-16T14:21:06.133Z,25.50
2018-07-16T14:23:33.001Z,25.50
2018-07-16T14:25:59.807Z,25.50
2018-07-16T14:28:26.634Z,25.50
2018-07-16T14:30:53.522Z,25.50
2018-07-16T14:33:20.350Z,25.50
2018-07-16T14:35:47.181Z,25.50
2018-07-16T14:38:14.005Z,25.50
2018-07-16T14:40:40.884Z,25.50
2018-07-16T14:43:07.717Z,25.50
2018-07-16T14:45:34.560Z,25.50
2018-07-16T14:48:01.441Z,25.50
2018-07-16T14:50:28.460Z,25.50
2018-07-16T14:52:55.291Z,25.50
2018-07-16T14:55:22.129Z,25.50
2018-07-16T14:57:48.976Z,25.50
2018-07-16T15:00:15.838Z,25.50
2018-07-16T15:02:42.660Z,25.40
2018-07-16T15:05:09.944Z,25.40
2018-07-16T15:07:36.725Z,25.40
2018-07-16T15:10:03.609Z,25.40
2018-07-16T15:12:30.439Z,25.50
2018-07-16T15:14:57.278Z,25.50
2018-07-16T15:17:24.377Z,25.50
2018-07-16T15:19:51.393Z,25.50
2018-07-16T15:22:23.594Z,25.50
2018-07-16T15:24:50.436Z,25.50
2018-07-16T15:27:17.234Z,25.50
2018-07-16T15:29:44.131Z,25.40
2018-07-16T15:32:10.922Z,25.40
2018-07-16T15:34:37.722Z,25.40
2018-07-16T15:37:04.546Z,25.40
2018-07-16T15:39:31.379Z,25.40
2018-07-16T15:41:58.193Z,25.40
2018-07-16T15:44:25.031Z,25.40
2018-07-16T15:46:51.878Z,25.40
2018-07-16T15:49:18.715Z,25.40
2018-07-16T15:51:45.534Z,25.40
2018-07-16T15:54:12.361Z,25.40
2018-07-16T15:56:39.223Z,25.30
2018-07-16T15:59:06.047Z,25.30
2018-07-16T16:01:33.038Z,25.40
2018-07-16T16:03:59.901Z,25.40
2018-07-16T16:06:26.724Z,25.40
2018-07-16T16:08:53.622Z,25.30
2018-07-16T16:11:20.449Z,25.30
2018-07-16T16:13:47.266Z,25.40
2018-07-16T16:16:14.134Z,25.40
2018-07-16T16:18:40.927Z,25.30
2018-07-16T16:21:07.782Z,25.20
2018-07-16T16:23:34.607Z,25.20
2018-07-16T16:26:01.458Z,25.10
2018-07-16T16:28:28.286Z,25.20
2018-07-16T16:30:55.155Z,25.20
2018-07-16T16:33:21.977Z,25.30
2018-07-16T16:35:48.798Z,25.30
2018-07-16T16:38:15.630Z,25.40
2018-07-16T16:40:42.531Z,25.40
2018-07-16T16:43:09.401Z,25.50
2018-07-16T16:45:36.194Z,25.50
2018-07-16T16:48:03.029Z,25.50
2018-07-16T16:50:29.898Z,25.50
2018-07-16T16:52:56.751Z,25.50
2018-07-16T16:55:23.541Z,25.50
2018-07-16T16:57:50.394Z,25.50
2018-07-16T17:00:17.306Z,25.50
2018-07-16T17:02:44.118Z,25.50
2018-07-16T17:05:11.466Z,25.50
2018-07-16T17:07:38.302Z,25.50
2018-07-16T17:10:05.274Z,25.50
2018-07-16T17:12:32.140Z,25.50
2018-07-16T17:14:58.983Z,25.40
2018-07-16T17:17:26.031Z,25.40
2018-07-16T17:19:52.835Z,25.40
2018-07-16T17:22:19.662Z,25.40
2018-07-16T17:24:46.508Z,25.40
2018-07-16T17:27:13.327Z,25.40
2018-07-16T17:29:40.199Z,25.40
2018-07-16T17:32:07.042Z,25.40
2018-07-16T17:34:33.892Z,25.40
2018-07-16T17:37:00.698Z,25.40
2018-07-16T17:39:27.530Z,25.40
2018-07-16T17:41:54.356Z,25.40
2018-07-16T17:44:21.189Z,25.40
2018-07-16T17:46:48.010Z,25.40
2018-07-16T17:49:14.868Z,25.40
2018-07-16T17:54:08.828Z,25.40
2018-07-16T17:56:35.679Z,25.40
2018-07-16T17:59:02.551Z,25.40
2018-07-16T18:01:29.561Z,25.40
2018-07-16T18:03:56.399Z,25.40
2018-07-16T18:06:23.248Z,25.40
2018-07-16T18:08:50.082Z,25.40
2018-07-16T18:11:16.941Z,25.40
2018-07-16T18:13:43.765Z,25.30
2018-07-16T18:16:10.599Z,25.30
2018-07-16T18:18:37.527Z,25.30
2018-07-16T18:21:04.565Z,25.30
2018-07-16T18:23:31.348Z,25.30
2018-07-16T18:25:58.192Z,25.30
2018-07-16T18:28:25.062Z,25.30
2018-07-16T18:30:51.886Z,25.30
2018-07-16T18:33:18.719Z,25.30
2018-07-16T18:35:45.541Z,25.30
2018-07-16T18:38:12.366Z,25.30
2018-07-16T18:40:39.258Z,25.30
2018-07-16T18:43:06.096Z,25.20
2018-07-16T18:45:33.005Z,25.10
2018-07-16T18:47:59.821Z,25.00
2018-07-16T18:50:26.853Z,24.90
2018-07-16T18:52:53.683Z,25.00
2018-07-16T18:55:20.592Z,25.00
2018-07-16T18:57:47.348Z,25.00
2018-07-16T19:00:14.226Z,24.80
2018-07-16T19:02:41.042Z,24.80
2018-07-16T19:05:07.875Z,24.80
2018-07-16T19:07:34.738Z,24.80
2018-07-16T19:10:01.801Z,24.80
2018-07-16T19:12:28.616Z,24.70
2018-07-16T19:14:55.518Z,24.70
2018-07-16T19:17:22.505Z,24.60
2018-07-16T19:19:49.379Z,24.60
2018-07-16T19:22:16.227Z,24.60
2018-07-16T19:24:43.049Z,24.60
2018-07-16T19:27:09.998Z,24.50
2018-07-16T19:29:36.963Z,24.50
2018-07-16T19:32:03.770Z,24.50
2018-07-16T19:34:30.599Z,24.50
2018-07-16T19:36:57.433Z,24.50
2018-07-16T19:39:24.270Z,24.50
2018-07-16T19:41:51.114Z,24.50
2018-07-16T19:44:17.953Z,24.40
2018-07-16T19:46:44.804Z,24.40
2018-07-16T19:49:11.626Z,24.30
2018-07-16T19:51:38.564Z,24.30
2018-07-16T19:54:05.381Z,24.30
2018-07-16T19:56:32.214Z,24.30
2018-07-16T19:58:59.070Z,24.30
2018-07-16T20:01:25.905Z,24.40
2018-07-16T20:03:52.767Z,24.60
2018-07-16T20:06:19.563Z,24.80
2018-07-16T20:08:46.391Z,24.90
2018-07-16T20:11:13.287Z,24.90
2018-07-16T20:13:41.060Z,25.00
2018-07-16T20:16:07.910Z,25.00
2018-07-16T20:18:34.746Z,25.00
2018-07-16T20:28:48.155Z,25.10
2018-07-16T20:31:15.047Z,25.10
2018-07-16T20:33:41.906Z,25.20
2018-07-16T20:36:08.795Z,25.20
2018-07-16T20:38:35.622Z,25.20
2018-07-16T20:41:02.614Z,25.20
2018-07-16T20:43:29.443Z,25.10
2018-07-16T20:45:56.265Z,25.20
2018-07-16T20:48:23.106Z,25.20
2018-07-16T20:50:49.997Z,25.20
2018-07-16T20:53:16.932Z,25.20
2018-07-16T20:55:43.756Z,25.20
2018-07-16T20:58:10.580Z,25.10
2018-07-16T21:00:37.573Z,25.10
2018-07-16T21:03:04.412Z,25.10
2018-07-16T21:05:31.452Z,25.10
2018-07-16T21:07:58.259Z,25.10
2018-07-16T21:10:25.154Z,25.10
2018-07-16T21:12:51.997Z,25.10
2018-07-16T21:15:18.867Z,25.10
2018-07-16T21:17:45.684Z,25.10
2018-07-16T21:20:12.534Z,25.10
2018-07-16T21:22:39.697Z,25.10
2018-07-16T21:25:06.695Z,25.10
2018-07-16T21:27:33.525Z,25.10
2018-07-16T21:30:00.504Z,25.10
2018-07-16T21:32:27.769Z,25.10
2018-07-16T21:34:54.604Z,25.10
2018-07-16T21:37:21.436Z,25.10
2018-07-16T21:39:48.287Z,25.10
2018-07-16T21:42:15.116Z,25.10
2018-07-16T21:44:42.637Z,25.10
2018-07-16T21:47:09.445Z,25.10
2018-07-16T21:49:36.476Z,25.10
2018-07-16T21:52:03.393Z,25.10
2018-07-16T21:54:30.349Z,25.10
2018-07-16T21:56:57.430Z,25.10
2018-07-16T21:59:24.235Z,25.10
2018-07-16T22:01:51.075Z,25.10
2018-07-16T22:04:17.905Z,25.10
2018-07-16T22:06:44.781Z,25.10
2018-07-16T22:09:11.609Z,25.10
2018-07-16T22:11:38.464Z,25.10
2018-07-16T22:14:05.343Z,25.10
2018-07-16T22:16:32.171Z,25.10
2018-07-16T22:18:58.987Z,25.10
2018-07-16T22:21:25.849Z,25.10
2018-07-16T22:23:52.677Z,25.10
2018-07-16T22:26:19.499Z,25.10
2018-07-16T22:28:46.679Z,25.10
2018-07-16T22:31:13.626Z,25.10
2018-07-16T22:33:40.443Z,25.10
2018-07-16T22:36:07.295Z,25.10
2018-07-16T22:38:34.178Z,25.10
2018-07-16T22:41:01.197Z,25.10
2018-07-16T22:43:28.028Z,25.10
2018-07-16T22:45:54.860Z,25.10
2018-07-16T22:48:21.684Z,25.10
2018-07-16T22:50:48.562Z,25.10
2018-07-16T22:53:15.415Z,25.10
2018-07-16T22:55:42.229Z,25.10
2018-07-16T22:58:09.078Z,25.10
2018-07-16T23:00:35.938Z,25.10
2018-07-16T23:03:02.764Z,25.10
2018-07-16T23:05:29.582Z,25.10
2018-07-16T23:07:56.409Z,25.10
2018-07-16T23:10:23.313Z,25.10
2018-07-16T23:12:50.140Z,25.00
2018-07-16T23:15:16.974Z,25.00
2018-07-16T23:17:43.798Z,25.00
2018-07-16T23:20:10.705Z,25.00
2018-07-16T23:22:37.531Z,25.00
2018-07-16T23:25:04.387Z,25.10
2018-07-16T23:27:31.246Z,25.00
2018-07-16T23:29:58.271Z,25.00
2018-07-16T23:32:25.140Z,25.00
2018-07-16T23:34:51.957Z,25.00
2018-07-16T23:37:18.807Z,25.00
2018-07-16T23:39:45.639Z,25.00
2018-07-16T23:42:12.463Z,25.00
2018-07-16T23:44:39.296Z,25.00
2018-07-16T23:47:06.322Z,25.00
2018-07-16T23:49:33.906Z,25.00
2018-07-16T23:52:00.739Z,25.00
2018-07-16T23:54:27.560Z,25.00
2018-07-16T23:56:54.397Z,25.00
2018-07-16T23:59:21.222Z,25.00
